RJBB/KIX METAR and TAF weather

Enter ICAO airport designator
Station Type Date Time Source
RJBB METAR 2022/01/23 11:30 UTC NOAA

RJBB 231130Z 05008KT 4500 -RA BR FEW002 SCT005 BKN008 06/05 Q1017 BECMG 6000 -RA BKN025


Station Type Date Time Source
RJBB Decoded METAR 2022/01/23 11:30 UTC NOAA

Kansai International Airport, Japan (RJBB) 34-25N 135-15E 8M
Jan 23, 2022 - 06:30 AM EST / 2022.01.23 1130 UTC
Wind: from the NE (050 degrees) at 9 MPH (8 KT):0
Visibility: 2 mile(s):0
Sky conditions: mostly cloudy
Weather: light rain; mist
Temperature: 42 F (6 C)
Dew Point: 41 F (5 C)
Relative Humidity: 93%
Pressure (altimeter): 30.03 in. Hg (1017 hPa)
ob: RJBB 231130Z 05008KT 4500 -RA BR FEW002 SCT005 BKN008 06/05 Q1017 BECMG 6000 -RA BKN025
cycle: 11

Station Type Date Time Source
RJBB TAF 2022/01/23 12:30 UTC NOAA

TAF RJBB 231106Z 2312/2418 06012KT 9999 FEW010 SCT020 BKN035
TEMPO 2312/2315 4000 -RA BR FEW003 BKN008 BKN015

Example: see airport list